Time;durP1;ratioP1;P1;durP2;ratioP2;P2;SDS_P1;SDS_P2;PMS_P1;PMS_P2;Temp;Humidity;BMP_temperature;BMP_pressure;BME280_temperature;BME280_humidity;BME280_pressure;Samples;Min_cycle;Max_cycle;Signal;HPM_P1;HPM_P2
2024/02/27 00:00:38;;;;;;;1.52;1.35;;;20.70;69.80;;;;;;4994183;28;20199;-72
2024/02/27 00:03:11;;;;;;;1.63;1.50;;;20.60;70.00;;;;;;4995623;28;21417;-73
2024/02/27 00:05:49;;;;;;;1.90;1.60;;;20.60;69.70;;;;;;4992831;28;20672;-73
2024/02/27 00:08:16;;;;;;;2.00;1.80;;;20.60;70.00;;;;;;4995669;28;20195;-73
2024/02/27 00:10:43;;;;;;;3.38;1.95;;;20.60;69.70;;;;;;4990170;28;20196;-73
2024/02/27 00:16:00;;;;;;;1.85;1.70;;;20.60;69.80;;;;;;5001136;28;20204;-73
2024/02/27 00:18:28;;;;;;;2.10;1.77;;;20.60;69.80;;;;;;5002431;28;20196;-72
2024/02/27 00:20:54;;;;;;;1.90;1.70;;;20.60;69.80;;;;;;5002378;28;20200;-72
2024/02/27 00:23:22;;;;;;;1.92;1.70;;;20.60;69.80;;;;;;5005910;28;20196;-72
2024/02/27 00:25:56;;;;;;;1.42;1.33;;;20.60;69.80;;;;;;5003710;28;20788;-72
2024/02/27 00:28:25;;;;;;;1.77;1.40;;;20.60;70.50;;;;;;5006710;28;20294;-73
2024/02/27 00:31:00;;;;;;;1.58;1.33;;;20.60;69.80;;;;;;5003429;28;20668;-73
2024/02/27 00:33:36;;;;;;;5.75;1.60;;;20.50;69.70;;;;;;5008662;28;20196;-72
2024/02/27 00:36:07;;;;;;;1.70;1.50;;;20.50;69.70;;;;;;5003751;28;20664;-73
2024/02/27 00:38:38;;;;;;;1.63;1.52;;;20.50;69.60;;;;;;5002946;28;20203;-73
2024/02/27 00:41:07;;;;;;;1.48;1.38;;;20.50;69.60;;;;;;5002005;28;20552;-72
2024/02/27 00:43:42;;;;;;;1.48;1.30;;;20.50;69.50;;;;;;5002285;28;20193;-73
2024/02/27 00:46:12;;;;;;;1.40;1.30;;;20.50;69.60;;;;;;5002491;28;20203;-73
2024/02/27 00:48:49;;;;;;;1.55;1.30;;;20.50;69.60;;;;;;5003438;28;20568;-73
2024/02/27 00:51:18;;;;;;;1.48;1.30;;;20.50;69.70;;;;;;5002453;28;20321;-73
2024/02/27 00:53:57;;;;;;;1.35;1.17;;;20.50;69.50;;;;;;5001356;28;20542;-72
2024/02/27 00:56:38;;;;;;;1.60;1.33;;;20.50;69.50;;;;;;4999073;28;20663;-73
2024/02/27 00:59:09;;;;;;;1.60;1.50;;;20.50;69.60;;;;;;4993693;28;20720;-73
2024/02/27 01:01:37;;;;;;;2.20;1.63;;;20.40;69.50;;;;;;4993889;28;22931;-73
2024/02/27 01:07:02;;;;;;;1.83;1.60;;;20.60;69.70;;;;;;4993999;28;20211;-72
2024/02/27 01:09:33;;;;;;;1.48;1.10;;;20.40;69.40;;;;;;4995595;28;20199;-71
2024/02/27 01:12:06;;;;;;;1.75;1.50;;;20.50;69.50;;;;;;4995548;28;20548;-73
2024/02/27 01:14:42;;;;;;;1.75;1.40;;;20.50;69.50;;;;;;4999913;28;22198;-73
2024/02/27 01:17:08;;;;;;;4.15;1.85;;;20.40;69.40;;;;;;5003280;28;20192;-73
2024/02/27 01:19:49;;;;;;;1.70;1.50;;;20.50;69.60;;;;;;5000527;28;20227;-73
2024/02/27 01:22:26;;;;;;;1.83;1.60;;;20.40;69.50;;;;;;5008072;28;20799;-73
2024/02/27 01:25:07;;;;;;;1.40;1.05;;;20.40;69.50;;;;;;5002404;28;20268;-72
2024/02/27 01:27:49;;;;;;;2.13;1.27;;;20.40;69.60;;;;;;5006647;28;21089;-72
2024/02/27 01:30:18;;;;;;;1.50;1.30;;;20.40;69.60;;;;;;5006577;28;20240;-72
2024/02/27 01:32:55;;;;;;;1.70;1.40;;;20.40;69.50;;;;;;5003074;28;20569;-73
2024/02/27 01:35:26;;;;;;;1.80;1.70;;;20.50;69.70;;;;;;5007344;28;20438;-73
2024/02/27 01:38:08;;;;;;;1.75;1.60;;;20.40;69.30;;;;;;5007064;28;20199;-72
2024/02/27 01:40:39;;;;;;;1.70;1.50;;;20.40;69.50;;;;;;5000680;28;20207;-73
2024/02/27 01:43:21;;;;;;;1.75;1.65;;;20.50;70.20;;;;;;4999481;28;20232;-72
2024/02/27 01:46:08;;;;;;;1.50;1.35;;;20.40;69.50;;;;;;4994586;28;20200;-73
2024/02/27 01:48:37;;;;;;;1.73;1.48;;;20.40;69.40;;;;;;4994028;28;20514;-73
2024/02/27 01:51:10;;;;;;;1.75;1.50;;;20.40;69.50;;;;;;4997114;28;20493;-73
2024/02/27 01:53:52;;;;;;;1.60;1.35;;;20.50;69.60;;;;;;4999141;28;20207;-73
2024/02/27 01:56:31;;;;;;;2.75;1.83;;;20.40;69.50;;;;;;4999327;28;20231;-72
2024/02/27 01:58:58;;;;;;;1.20;1.10;;;20.40;69.60;;;;;;4997826;28;20231;-72
2024/02/27 02:01:28;;;;;;;1.40;1.25;;;20.40;69.60;;;;;;4998820;28;20196;-72
2024/02/27 02:04:09;;;;;;;;;;;;;;;;;;;;;
2024/02/27 02:06:44;;;;;;;1.60;1.20;;;20.40;69.60;;;;;;4991934;28;20746;-72
2024/02/27 02:09:23;;;;;;;1.50;1.40;;;20.40;69.50;;;;;;4996536;28;20199;-72
2024/02/27 02:11:54;;;;;;;2.03;1.40;;;20.40;69.60;;;;;;4995874;28;20207;-72
2024/02/27 02:14:23;;;;;;;1.98;1.70;;;20.40;69.60;;;;;;4996878;28;20204;-72
2024/02/27 02:16:56;;;;;;;2.35;1.50;;;20.40;69.60;;;;;;4996945;28;20289;-72
2024/02/27 02:19:23;;;;;;;2.30;1.40;;;20.40;69.60;;;;;;4996987;28;20319;-72
2024/02/27 02:21:56;;;;;;;1.50;1.20;;;20.40;69.60;;;;;;4998366;28;20239;-72
2024/02/27 02:24:32;;;;;;;1.77;1.52;;;20.40;69.60;;;;;;4994291;28;20231;-72
2024/02/27 02:27:01;;;;;;;1.50;1.38;;;20.40;69.50;;;;;;4998793;28;20199;-72
2024/02/27 02:29:31;;;;;;;1.90;1.38;;;20.40;69.70;;;;;;5002115;28;20200;-72
2024/02/27 02:32:08;;;;;;;1.63;1.30;;;20.40;69.60;;;;;;5003673;28;20200;-72
2024/02/27 02:34:38;;;;;;;2.58;1.90;;;20.40;69.70;;;;;;5010702;28;20271;-72
2024/02/27 02:37:10;;;;;;;1.25;1.10;;;20.40;69.90;;;;;;5010719;28;20763;-72
2024/02/27 02:39:42;;;;;;;1.60;1.23;;;20.40;69.60;;;;;;5008495;28;20537;-72
2024/02/27 02:42:08;;;;;;;1.85;1.40;;;20.40;69.70;;;;;;5010853;28;20199;-72
2024/02/27 02:44:40;;;;;;;1.40;1.30;;;20.40;69.60;;;;;;5008584;28;20554;-72
2024/02/27 02:47:08;;;;;;;1.58;1.48;;;20.40;69.50;;;;;;4995215;28;20784;-72
2024/02/27 02:49:44;;;;;;;1.50;1.23;;;20.40;69.70;;;;;;4997862;28;20200;-72
2024/02/27 02:52:13;;;;;;;2.72;1.35;;;20.30;69.50;;;;;;5000060;28;20195;-72
2024/02/27 02:54:44;;;;;;;1.75;1.38;;;20.40;69.70;;;;;;4999009;28;20695;-72
2024/02/27 02:57:11;;;;;;;1.40;0.95;;;20.40;69.70;;;;;;4998001;28;20345;-72
2024/02/27 02:59:43;;;;;;;1.70;1.35;;;20.30;69.60;;;;;;4996698;28;20865;-72
2024/02/27 03:02:12;;;;;;;2.08;1.58;;;20.30;69.60;;;;;;4998473;28;20304;-72
2024/02/27 03:04:39;;;;;;;1.20;1.08;;;20.30;69.60;;;;;;4994546;28;20768;-72
2024/02/27 03:07:07;;;;;;;2.00;1.50;;;20.30;69.60;;;;;;4998114;28;20235;-72
2024/02/27 03:09:45;;;;;;;1.40;1.25;;;20.30;69.60;;;;;;4995609;28;20208;-73
2024/02/27 03:12:15;;;;;;;1.48;1.30;;;20.30;69.70;;;;;;4997375;28;20692;-72
2024/02/27 03:14:56;;;;;;;1.63;1.30;;;20.30;69.70;;;;;;5004864;28;20247;-72
2024/02/27 03:17:37;;;;;;;1.40;1.23;;;20.30;69.70;;;;;;5000843;28;20196;-72
2024/02/27 03:20:10;;;;;;;1.10;0.90;;;20.30;69.60;;;;;;5005145;28;20208;-72
2024/02/27 03:22:38;;;;;;;1.63;1.25;;;20.30;69.70;;;;;;5005372;28;20204;-72
2024/02/27 03:25:13;;;;;;;1.70;1.27;;;20.30;69.70;;;;;;5002324;28;20204;-72
2024/02/27 03:27:42;;;;;;;1.52;1.38;;;20.30;69.70;;;;;;5007807;28;20196;-72
2024/02/27 03:30:10;;;;;;;1.20;1.10;;;20.30;69.70;;;;;;5005688;28;20287;-73
2024/02/27 03:32:47;;;;;;;1.40;1.20;;;20.30;69.70;;;;;;5000266;28;20208;-72
2024/02/27 03:35:16;;;;;;;1.30;1.20;;;20.30;69.60;;;;;;5004852;28;20719;-72
2024/02/27 03:37:47;;;;;;;1.83;1.48;;;20.30;69.70;;;;;;5006715;28;20207;-72
2024/02/27 03:40:15;;;;;;;1.10;0.90;;;20.30;69.60;;;;;;4994740;28;20212;-73
2024/02/27 03:42:44;;;;;;;1.25;1.05;;;20.30;69.60;;;;;;4994704;28;20791;-72
2024/02/27 03:45:19;;;;;;;1.83;1.58;;;20.30;69.60;;;;;;4997060;28;21387;-72
2024/02/27 03:47:48;;;;;;;1.35;1.17;;;20.30;69.80;;;;;;4995029;28;20788;-72
2024/02/27 03:50:15;;;;;;;1.33;1.20;;;20.30;69.80;;;;;;4992862;28;20594;-72
2024/02/27 03:52:47;;;;;;;1.90;1.38;;;20.30;69.70;;;;;;4998929;28;20219;-72
2024/02/27 03:55:18;;;;;;;1.75;1.17;;;20.40;69.90;;;;;;4992657;28;20248;-70
2024/02/27 03:57:49;;;;;;;1.50;1.40;;;20.30;69.70;;;;;;5002336;28;20553;-72
2024/02/27 04:00:19;;;;;;;1.40;1.30;;;20.30;69.70;;;;;;4999947;28;20772;-72
2024/02/27 04:02:53;;;;;;;1.77;1.55;;;20.30;69.70;;;;;;4989549;28;20234;-72
2024/02/27 04:05:20;;;;;;;1.20;1.10;;;20.30;69.80;;;;;;4990642;28;21332;-73
2024/02/27 04:07:53;;;;;;;1.55;1.20;;;20.30;69.80;;;;;;4995628;28;20478;-71
2024/02/27 04:10:22;;;;;;;1.40;1.20;;;20.30;69.80;;;;;;4993610;28;20204;-71
2024/02/27 04:12:53;;;;;;;1.63;1.45;;;20.30;69.80;;;;;;4992635;28;20201;-72
2024/02/27 04:15:35;;;;;;;1.48;1.25;;;20.30;69.70;;;;;;4996350;28;20799;-72
2024/02/27 04:18:07;;;;;;;1.35;1.13;;;20.30;69.80;;;;;;4996939;28;20203;-73
2024/02/27 04:20:36;;;;;;;1.10;1.00;;;20.20;69.70;;;;;;4996689;28;20325;-72
2024/02/27 04:23:02;;;;;;;1.40;1.15;;;20.20;69.70;;;;;;4993411;28;20265;-72
2024/02/27 04:25:37;;;;;;;1.25;1.10;;;20.20;69.70;;;;;;4991654;28;20701;-72
2024/02/27 04:28:11;;;;;;;1.13;1.00;;;20.20;69.70;;;;;;4994250;28;20223;-72
2024/02/27 04:30:38;;;;;;;1.15;1.05;;;20.20;69.70;;;;;;4996015;28;20207;-72
2024/02/27 04:33:16;;;;;;;1.15;0.98;;;20.20;69.70;;;;;;4992830;28;20203;-72
2024/02/27 04:35:49;;;;;;;1.30;1.10;;;20.30;69.80;;;;;;4992556;28;20223;-72
2024/02/27 04:38:17;;;;;;;1.42;1.00;;;20.20;69.70;;;;;;5000921;28;20204;-72
2024/02/27 04:40:46;;;;;;;1.42;1.00;;;20.20;69.80;;;;;;5001885;28;20247;-72
2024/02/27 04:43:14;;;;;;;1.90;1.30;;;20.20;69.80;;;;;;4990907;28;20219;-72
2024/02/27 04:45:40;;;;;;;1.38;1.10;;;20.20;69.80;;;;;;4997608;28;20688;-72
2024/02/27 04:48:18;;;;;;;1.37;1.13;;;20.20;69.80;;;;;;4995936;28;20203;-73
2024/02/27 04:50:49;;;;;;;1.30;1.00;;;20.20;69.60;;;;;;4986432;28;20204;-72
2024/02/27 04:53:20;;;;;;;1.38;1.08;;;20.10;69.60;;;;;;4996386;28;20521;-74
2024/02/27 04:55:52;;;;;;;1.30;1.20;;;20.20;69.80;;;;;;5001113;28;20235;-72
2024/02/27 04:58:27;;;;;;;1.48;1.23;;;20.20;69.80;;;;;;4997057;28;20565;-72
2024/02/27 05:00:59;;;;;;;1.40;1.15;;;20.20;69.80;;;;;;4989000;28;20286;-72
2024/02/27 05:03:28;;;;;;;1.58;1.48;;;20.20;69.80;;;;;;4997945;28;20266;-72
2024/02/27 05:05:59;;;;;;;1.65;1.25;;;20.20;69.80;;;;;;4993645;28;20196;-72
2024/02/27 05:08:37;;;;;;;1.63;1.40;;;20.20;69.70;;;;;;4996776;28;20239;-72
2024/02/27 05:11:18;;;;;;;1.40;1.30;;;20.20;69.70;;;;;;4994684;28;20203;-72
2024/02/27 05:13:46;;;;;;;1.30;1.20;;;20.20;69.80;;;;;;5003948;28;20211;-72
2024/02/27 05:16:20;;;;;;;1.75;1.15;;;20.20;69.80;;;;;;5004170;28;20307;-72
2024/02/27 05:18:58;;;;;;;1.50;1.10;;;20.20;69.80;;;;;;4997613;28;20248;-72
2024/02/27 05:21:30;;;;;;;1.42;1.05;;;20.20;69.80;;;;;;5003993;28;20447;-72
2024/02/27 05:24:01;;;;;;;1.50;1.05;;;20.20;69.90;;;;;;5004441;28;20203;-72
2024/02/27 05:29:21;;;;;;;1.20;1.10;;;20.20;69.90;;;;;;5001260;28;20206;-72
2024/02/27 05:31:55;;;;;;;1.58;1.25;;;20.20;69.80;;;;;;5009811;28;20206;-72
2024/02/27 05:34:35;;;;;;;1.25;1.10;;;20.20;69.80;;;;;;5004960;28;20200;-72
2024/02/27 05:37:03;;;;;;;1.15;1.00;;;20.20;69.90;;;;;;5007838;28;20226;-72
2024/02/27 05:39:37;;;;;;;1.25;1.05;;;20.20;69.80;;;;;;5001059;28;20632;-72
2024/02/27 05:42:05;;;;;;;1.40;1.30;;;20.20;69.80;;;;;;4997435;28;21025;-72
2024/02/27 05:44:33;;;;;;;1.38;1.20;;;20.20;69.70;;;;;;4996923;28;20222;-72
2024/02/27 05:47:03;;;;;;;1.60;1.30;;;20.20;69.80;;;;;;4997780;28;20408;-72
2024/02/27 05:49:29;;;;;;;1.35;1.25;;;20.20;69.80;;;;;;4997036;28;20315;-72
2024/02/27 05:52:03;;;;;;;1.50;1.40;;;20.20;69.70;;;;;;4997363;28;20200;-72
2024/02/27 05:54:31;;;;;;;1.40;1.30;;;20.20;69.80;;;;;;4994381;28;20224;-72
2024/02/27 05:57:02;;;;;;;1.95;1.20;;;20.20;69.80;;;;;;4998314;28;20215;-72
2024/02/27 05:59:31;;;;;;;1.40;1.00;;;20.20;69.80;;;;;;4996389;28;20199;-72
2024/02/27 06:02:05;;;;;;;1.35;1.20;;;20.20;69.80;;;;;;4995823;28;20199;-72
2024/02/27 06:04:51;;;;;;;1.40;1.20;;;20.20;69.80;;;;;;4993643;28;21225;-72
2024/02/27 06:07:20;;;;;;;1.48;1.23;;;20.20;69.90;;;;;;4992313;28;20622;-72
2024/02/27 06:09:57;;;;;;;1.63;1.52;;;20.20;69.90;;;;;;4999688;28;20196;-72
2024/02/27 06:12:23;;;;;;;1.40;1.10;;;20.20;69.90;;;;;;4997846;28;20196;-72
2024/02/27 06:14:56;;;;;;;1.55;1.45;;;20.20;69.80;;;;;;4999052;28;20219;-72
2024/02/27 06:17:25;;;;;;;1.45;1.10;;;20.20;69.90;;;;;;4998052;28;20227;-73
2024/02/27 06:19:55;;;;;;;1.08;0.93;;;20.20;69.80;;;;;;5000012;28;20832;-73
2024/02/27 06:22:23;;;;;;;1.27;1.17;;;20.20;69.90;;;;;;4999247;28;20203;-72
2024/02/27 06:25:01;;;;;;;1.13;1.00;;;20.20;69.80;;;;;;4970932;28;20199;-72
2024/02/27 06:27:31;;;;;;;1.10;1.00;;;20.10;69.80;;;;;;4996346;28;20200;-73
2024/02/27 06:30:08;;;;;;;1.35;1.05;;;20.10;69.80;;;;;;4998081;28;20202;-72
2024/02/27 06:32:34;;;;;;;1.13;0.98;;;20.10;69.90;;;;;;4999190;28;20541;-72
2024/02/27 06:35:06;;;;;;;1.20;1.05;;;20.20;69.90;;;;;;4995449;28;20669;-73
2024/02/27 06:37:36;;;;;;;1.30;1.10;;;20.10;69.90;;;;;;4999548;28;20224;-72
2024/02/27 06:40:10;;;;;;;1.17;0.95;;;20.20;70.00;;;;;;5003063;28;20200;-72
2024/02/27 06:42:47;;;;;;;1.50;1.20;;;20.10;69.90;;;;;;5005222;28;20283;-72
2024/02/27 06:45:21;;;;;;;1.10;0.90;;;20.10;69.90;;;;;;4999512;28;20200;-72
2024/02/27 06:47:49;;;;;;;1.45;1.10;;;20.20;70.00;;;;;;5009713;28;20208;-72
2024/02/27 06:50:18;;;;;;;1.10;1.00;;;20.10;69.80;;;;;;4998427;28;20203;-72
2024/02/27 06:52:53;;;;;;;1.20;1.08;;;20.10;69.80;;;;;;4998484;28;20184;-72
2024/02/27 06:55:22;;;;;;;1.80;1.35;;;20.10;69.80;;;;;;4995488;28;20695;-72
2024/02/27 06:57:50;;;;;;;1.98;1.30;;;20.10;69.70;;;;;;5000166;28;20219;-72
2024/02/27 07:00:22;;;;;;;1.33;1.20;;;20.10;69.70;;;;;;4999938;28;20587;-72
2024/02/27 07:02:49;;;;;;;1.38;1.10;;;20.10;69.60;;;;;;4999435;28;20195;-72
2024/02/27 07:05:26;;;;;;;1.35;1.23;;;20.10;69.70;;;;;;4997992;28;20282;-72
2024/02/27 07:07:55;;;;;;;1.30;1.02;;;20.10;69.70;;;;;;4999643;28;20204;-72
2024/02/27 07:10:23;;;;;;;1.77;1.50;;;20.10;69.60;;;;;;4998328;28;20541;-72
2024/02/27 07:12:50;;;;;;;1.48;1.27;;;20.10;69.60;;;;;;5001049;28;20200;-71
2024/02/27 07:15:18;;;;;;;1.40;1.10;;;20.10;69.60;;;;;;5001587;28;20210;-72
2024/02/27 07:17:48;;;;;;;2.28;1.10;;;20.10;69.50;;;;;;5011979;28;20221;-73
2024/02/27 07:20:21;;;;;;;1.30;1.20;;;20.10;69.50;;;;;;5007326;28;20274;-73
2024/02/27 07:22:48;;;;;;;1.40;1.30;;;20.00;69.50;;;;;;5004200;28;20203;-72
2024/02/27 07:25:22;;;;;;;1.52;1.40;;;20.00;69.60;;;;;;5004162;28;20564;-73
2024/02/27 07:28:01;;;;;;;1.27;1.05;;;20.10;69.80;;;;;;5008616;28;20227;-71
2024/02/27 07:30:32;;;;;;;1.58;1.40;;;20.10;69.90;;;;;;5005670;28;20250;-71
2024/02/27 07:33:04;;;;;;;5.75;1.40;;;20.10;70.00;;;;;;4999099;28;20243;-67
2024/02/27 07:35:30;;;;;;;1.30;1.00;;;20.20;70.30;;;;;;5002894;28;20208;-66
2024/02/27 07:38:04;;;;;;;1.20;0.95;;;20.20;70.40;;;;;;4999552;28;20226;-71
2024/02/27 07:40:34;;;;;;;2.85;1.10;;;20.20;70.60;;;;;;5003129;28;20291;-68
2024/02/27 07:43:01;;;;;;;1.67;1.27;;;20.20;70.70;;;;;;5005274;28;20195;-67
2024/02/27 07:45:33;;;;;;;1.20;1.00;;;20.20;70.70;;;;;;5003885;28;20203;-68
2024/02/27 07:48:06;;;;;;;1.50;1.30;;;20.20;70.60;;;;;;5006629;28;20195;-69
2024/02/27 07:50:40;;;;;;;2.78;1.38;;;20.20;70.80;;;;;;4998991;28;20210;-68
2024/02/27 07:53:08;;;;;;;1.40;1.10;;;20.20;70.70;;;;;;5005372;28;21103;-68
2024/02/27 07:55:38;;;;;;;1.20;1.00;;;20.30;70.70;;;;;;5000297;28;20283;-68
2024/02/27 07:58:08;;;;;;;2.25;1.10;;;20.30;70.70;;;;;;5003484;28;21031;-69
2024/02/27 08:00:34;;;;;;;1.40;1.00;;;20.30;70.60;;;;;;5005086;28;20207;-68
2024/02/27 08:03:06;;;;;;;1.33;1.05;;;20.30;70.60;;;;;;5001858;28;20557;-68
2024/02/27 08:05:37;;;;;;;1.10;1.00;;;20.30;70.60;;;;;;5003163;28;20239;-70
2024/02/27 08:08:07;;;;;;;1.30;1.00;;;20.30;70.50;;;;;;5002811;28;20195;-68
2024/02/27 08:10:34;;;;;;;1.70;1.45;;;20.30;70.50;;;;;;5003384;28;20280;-68
2024/02/27 08:13:10;;;;;;;;;;;;;;;;;;;;;
2024/02/27 08:15:44;;;;;;;1.80;1.10;;;20.30;70.40;;;;;;4999192;28;20660;-68
2024/02/27 08:18:13;;;;;;;1.40;1.10;;;20.30;70.50;;;;;;5006770;28;20249;-68
2024/02/27 08:20:54;;;;;;;1.92;1.10;;;20.30;70.30;;;;;;4996131;28;20676;-68
2024/02/27 08:23:23;;;;;;;1.30;1.08;;;20.30;70.40;;;;;;5004870;28;20199;-69
2024/02/27 08:25:54;;;;;;;1.20;1.00;;;20.30;70.30;;;;;;5001978;28;20209;-69
2024/02/27 08:28:22;;;;;;;1.40;1.30;;;20.30;70.40;;;;;;5004078;28;20199;-69
2024/02/27 08:30:51;;;;;;;1.10;1.00;;;20.20;70.20;;;;;;5000619;28;20287;-69
2024/02/27 08:33:22;;;;;;;1.33;1.00;;;20.30;70.30;;;;;;4998584;28;20210;-69
2024/02/27 08:35:53;;;;;;;5.82;1.10;;;20.30;70.20;;;;;;4999805;28;20322;-69
2024/02/27 08:38:32;;;;;;;;;;;;;;;;;;;;;
2024/02/27 08:41:03;;;;;;;1.40;1.30;;;20.30;70.20;;;;;;5002143;28;20200;-68
2024/02/27 08:43:35;;;;;;;1.75;1.33;;;20.30;69.70;;;;;;5001122;28;20203;-68
2024/02/27 08:46:03;;;;;;;2.45;1.20;;;20.30;70.00;;;;;;5001901;28;20204;-68
2024/02/27 08:48:31;;;;;;;1.67;0.90;;;20.30;70.00;;;;;;4979174;28;20549;-68
2024/02/27 08:51:08;;;;;;;1.33;1.10;;;20.30;70.10;;;;;;5001516;28;20203;-67
2024/02/27 08:53:40;;;;;;;1.50;1.15;;;20.30;70.40;;;;;;5006505;28;20231;-68
2024/02/27 08:56:13;;;;;;;1.10;1.00;;;20.30;70.60;;;;;;4999167;28;20195;-65
2024/02/27 08:58:43;;;;;;;1.70;1.27;;;20.30;70.60;;;;;;5002869;28;20247;-66
2024/02/27 09:01:13;;;;;;;1.50;1.40;;;20.40;70.90;;;;;;5000751;28;20208;-69
2024/02/27 09:03:46;;;;;;;2.08;1.15;;;20.40;71.00;;;;;;4998810;28;20204;-68
2024/02/27 09:06:15;;;;;;;1.50;1.10;;;20.40;71.00;;;;;;4994363;28;20199;-68
2024/02/27 09:08:47;;;;;;;1.20;1.10;;;20.40;71.20;;;;;;4997521;28;20219;-70
2024/02/27 09:11:13;;;;;;;1.48;1.00;;;20.40;71.20;;;;;;4997843;28;20672;-70
2024/02/27 09:13:43;;;;;;;1.20;1.00;;;20.40;71.30;;;;;;4997412;28;20457;-69
2024/02/27 09:16:13;;;;;;;1.38;1.27;;;20.50;71.50;;;;;;4996294;28;20572;-67
2024/02/27 09:18:45;;;;;;;6.68;1.33;;;20.50;71.40;;;;;;4997726;28;20262;-70
2024/02/27 09:21:13;;;;;;;1.35;1.17;;;20.50;71.50;;;;;;4998728;28;20279;-69
2024/02/27 09:23:45;;;;;;;4.90;1.20;;;20.50;71.50;;;;;;4998017;28;20978;-72
2024/02/27 09:26:19;;;;;;;1.50;1.15;;;20.60;71.70;;;;;;4998490;28;20207;-68
2024/02/27 09:28:50;;;;;;;4.00;1.30;;;20.60;71.70;;;;;;4997472;28;20609;-72
2024/02/27 09:31:27;;;;;;;1.40;1.00;;;20.60;71.70;;;;;;4996347;28;20204;-68
2024/02/27 09:33:57;;;;;;;1.27;1.17;;;20.60;71.70;;;;;;5001059;28;20207;-72
2024/02/27 09:36:30;;;;;;;1.80;1.25;;;20.60;71.70;;;;;;4996664;28;20694;-73
2024/02/27 09:39:03;;;;;;;1.00;0.90;;;20.60;71.70;;;;;;5001479;28;20793;-76
2024/02/27 09:41:47;;;;;;;1.63;1.30;;;20.70;71.80;;;;;;5000271;28;20584;-71
2024/02/27 09:44:19;;;;;;;1.65;1.15;;;20.70;71.70;;;;;;5005250;28;20231;-73
2024/02/27 09:46:56;;;;;;;1.45;1.10;;;20.70;71.70;;;;;;5006919;28;20282;-72
2024/02/27 09:49:46;;;;;;;;;;;;;;;;;;;;;
2024/02/27 09:52:20;;;;;;;1.80;1.15;;;20.70;71.70;;;;;;5006462;28;20777;-74
2024/02/27 09:54:49;;;;;;;1.40;1.00;;;20.80;71.80;;;;;;4998109;28;20203;-69
2024/02/27 09:57:24;;;;;;;1.10;0.90;;;20.80;71.70;;;;;;4999195;28;20224;-72
2024/02/27 09:59:55;;;;;;;1.25;1.15;;;20.80;71.70;;;;;;5009295;28;20210;-72
2024/02/27 10:02:27;;;;;;;2.42;1.40;;;20.80;71.80;;;;;;5005024;28;20780;-70
2024/02/27 10:05:04;;;;;;;1.75;1.23;;;20.80;71.70;;;;;;5002500;28;20665;-68
2024/02/27 10:07:36;;;;;;;2.20;1.40;;;20.90;71.80;;;;;;5010205;28;20210;-66
2024/02/27 10:10:05;;;;;;;1.30;1.10;;;20.90;71.70;;;;;;5006042;28;20449;-72
2024/02/27 10:12:33;;;;;;;1.73;1.00;;;20.90;71.80;;;;;;4999606;28;20200;-67
2024/02/27 10:15:04;;;;;;;1.83;1.10;;;20.90;71.80;;;;;;5010361;28;20241;-67
2024/02/27 10:17:35;;;;;;;1.90;1.25;;;20.90;71.70;;;;;;5007432;28;20859;-71
2024/02/27 10:20:10;;;;;;;1.30;0.90;;;20.90;71.70;;;;;;5006285;28;21478;-68
2024/02/27 10:22:37;;;;;;;1.80;1.20;;;20.90;71.70;;;;;;5009090;28;20218;-71
2024/02/27 10:25:10;;;;;;;2.10;1.10;;;20.90;71.70;;;;;;5005923;28;20201;-68
2024/02/27 10:27:42;;;;;;;1.25;1.05;;;21.00;71.70;;;;;;5012281;28;20298;-71
2024/02/27 10:30:10;;;;;;;1.40;1.10;;;20.90;71.70;;;;;;5004870;28;20202;-69
2024/02/27 10:32:41;;;;;;;1.10;0.80;;;21.00;71.70;;;;;;5001218;28;20651;-71
2024/02/27 10:35:15;;;;;;;2.23;1.10;;;21.00;71.70;;;;;;4995751;28;20772;-68
2024/02/27 10:37:50;;;;;;;1.17;1.08;;;21.00;71.70;;;;;;5005588;28;20630;-75
2024/02/27 10:40:23;;;;;;;1.35;1.00;;;21.00;71.70;;;;;;5004457;28;20591;-73
2024/02/27 10:42:57;;;;;;;2.25;1.10;;;21.10;71.80;;;;;;5001383;28;20561;-71
2024/02/27 10:45:26;;;;;;;1.00;0.90;;;21.00;71.70;;;;;;4995976;28;20204;-69
2024/02/27 10:47:58;;;;;;;2.17;1.27;;;21.10;71.80;;;;;;5000685;28;20672;-68
2024/02/27 10:50:31;;;;;;;1.45;0.90;;;21.10;71.80;;;;;;5000502;28;20863;-68
2024/02/27 10:53:07;;;;;;;2.70;1.07;;;21.10;71.70;;;;;;5000354;28;21194;-68
2024/02/27 10:55:38;;;;;;;1.40;1.10;;;21.10;71.60;;;;;;5003306;28;20459;-69
2024/02/27 10:58:07;;;;;;;1.13;1.02;;;21.10;71.50;;;;;;5001400;28;20223;-68
2024/02/27 11:00:34;;;;;;;3.30;0.95;;;21.10;71.40;;;;;;5002553;28;20665;-72
2024/02/27 11:03:08;;;;;;;3.83;1.20;;;21.10;71.40;;;;;;4993716;28;20681;-72
2024/02/27 11:05:40;;;;;;;1.87;1.40;;;21.10;71.00;;;;;;4995274;28;20473;-70
2024/02/27 11:08:27;;;;;;;2.23;2.03;;;21.10;71.20;;;;;;4997736;28;20474;-71
2024/02/27 11:10:57;;;;;;;1.47;1.23;;;21.10;71.30;;;;;;5001681;28;20467;-69
2024/02/27 11:13:32;;;;;;;1.75;1.05;;;21.10;71.30;;;;;;5003775;28;20470;-68
2024/02/27 11:16:04;;;;;;;2.28;1.15;;;21.10;71.20;;;;;;5005983;28;20192;-68
2024/02/27 11:18:36;;;;;;;2.00;1.20;;;21.00;70.90;;;;;;5006379;28;20223;-68
2024/02/27 11:21:08;;;;;;;1.30;1.02;;;21.00;70.90;;;;;;5007606;28;20224;-68
2024/02/27 11:23:36;;;;;;;9.32;1.38;;;21.00;70.90;;;;;;5003120;28;20295;-68
2024/02/27 11:26:07;;;;;;;4.20;1.65;;;21.00;71.60;;;;;;5010945;28;20276;-69
2024/02/27 11:28:37;;;;;;;7.33;1.40;;;21.00;70.70;;;;;;5004090;28;20194;-68
2024/02/27 11:31:14;;;;;;;1.63;1.27;;;21.00;69.70;;;;;;5006988;28;20466;-69
2024/02/27 11:33:54;;;;;;;2.20;1.20;;;21.00;70.00;;;;;;5005478;28;20244;-69
2024/02/27 11:36:36;;;;;;;2.45;1.30;;;21.00;70.00;;;;;;5007115;28;20207;-68
2024/02/27 11:39:04;;;;;;;2.78;1.30;;;21.00;69.80;;;;;;5006246;28;20301;-68
2024/02/27 11:41:33;;;;;;;1.30;1.00;;;21.00;69.80;;;;;;5000229;28;20253;-69
2024/02/27 11:44:02;;;;;;;1.60;1.00;;;21.00;69.80;;;;;;4994392;28;20200;-69
2024/02/27 11:46:44;;;;;;;2.45;1.30;;;21.00;69.80;;;;;;5004198;28;20216;-68
2024/02/27 11:49:13;;;;;;;1.30;1.20;;;21.00;69.60;;;;;;4994691;28;20783;-68
2024/02/27 11:51:41;;;;;;;1.48;1.00;;;21.00;69.60;;;;;;4995762;28;20204;-68
2024/02/27 11:54:16;;;;;;;1.58;1.40;;;21.00;69.60;;;;;;5003771;28;20204;-68
2024/02/27 11:56:54;;;;;;;1.60;1.05;;;21.00;69.80;;;;;;5007646;28;20202;-68
2024/02/27 11:59:30;;;;;;;1.23;1.10;;;21.00;69.60;;;;;;5001855;28;20779;-68
2024/02/27 12:02:19;;;;;;;1.63;0.90;;;21.00;69.60;;;;;;5004824;28;20204;-68
2024/02/27 12:04:51;;;;;;;3.75;1.67;;;21.00;69.60;;;;;;5004565;28;20494;-68
2024/02/27 12:07:39;;;;;;;1.40;1.17;;;20.90;69.50;;;;;;5004178;28;20223;-68
2024/02/27 12:10:10;;;;;;;2.45;0.95;;;21.00;69.50;;;;;;5007431;28;20227;-68
2024/02/27 12:12:49;;;;;;;2.03;0.85;;;20.90;69.50;;;;;;5003301;28;20203;-68
2024/02/27 12:15:19;;;;;;;1.25;1.13;;;20.90;69.50;;;;;;5006456;28;20302;-68
2024/02/27 12:20:28;;;;;;;1.20;1.00;;;20.90;69.50;;;;;;5004831;28;20249;-68
2024/02/27 12:22:59;;;;;;;1.33;1.00;;;20.90;69.50;;;;;;5000756;28;20777;-68
2024/02/27 12:25:32;;;;;;;2.10;1.13;;;20.90;69.50;;;;;;5005669;28;20200;-68
2024/02/27 12:28:08;;;;;;;1.35;1.00;;;20.90;69.50;;;;;;4999347;28;20205;-69
2024/02/27 12:30:43;;;;;;;1.20;1.08;;;20.90;69.50;;;;;;5008923;28;20206;-68
2024/02/27 12:33:12;;;;;;;1.67;1.10;;;20.90;69.50;;;;;;5005466;28;20199;-68
2024/02/27 12:35:48;;;;;;;1.17;0.95;;;20.90;69.50;;;;;;5008997;28;20585;-68
2024/02/27 12:38:16;;;;;;;2.13;1.00;;;20.90;69.60;;;;;;4999880;28;20726;-69
2024/02/27 12:40:46;;;;;;;1.20;1.08;;;20.90;69.50;;;;;;5004959;28;20192;-68
2024/02/27 12:43:21;;;;;;;1.33;0.90;;;20.90;69.60;;;;;;4995917;28;20228;-68
2024/02/27 12:45:57;;;;;;;1.20;0.85;;;20.90;69.60;;;;;;5005984;28;20214;-68
2024/02/27 12:48:24;;;;;;;1.00;0.90;;;20.90;69.60;;;;;;5008786;28;20204;-69
2024/02/27 12:53:47;;;;;;;1.50;0.90;;;20.90;69.60;;;;;;5003893;28;20215;-67
2024/02/27 12:56:19;;;;;;;1.42;1.05;;;20.90;69.50;;;;;;5005596;28;20301;-71
2024/02/27 12:58:50;;;;;;;1.10;0.90;;;20.90;69.50;;;;;;5003615;28;20223;-72
2024/02/27 13:01:24;;;;;;;3.70;1.20;;;20.90;69.50;;;;;;4999567;28;20191;-70
2024/02/27 13:04:07;;;;;;;2.47;1.65;;;20.80;69.50;;;;;;4997006;28;20207;-66
2024/02/27 13:06:37;;;;;;;2.90;1.10;;;20.90;69.70;;;;;;4998249;28;20726;-69
2024/02/27 13:09:07;;;;;;;1.27;1.00;;;20.90;69.70;;;;;;5006249;28;20211;-70
2024/02/27 13:11:34;;;;;;;4.30;1.70;;;20.90;69.80;;;;;;5004621;28;20435;-70
2024/02/27 13:14:11;;;;;;;1.75;1.10;;;21.00;70.00;;;;;;5003887;28;20215;-68
2024/02/27 13:16:39;;;;;;;2.95;1.10;;;20.90;70.00;;;;;;5005043;28;20207;-72
2024/02/27 13:19:10;;;;;;;1.10;0.90;;;20.90;70.00;;;;;;5010891;28;20219;-75
2024/02/27 13:21:54;;;;;;;1.27;0.88;;;20.90;70.10;;;;;;5002895;28;20220;-74
2024/02/27 13:24:25;;;;;;;2.70;1.45;;;21.00;70.20;;;;;;5007252;28;20207;-72
2024/02/27 13:26:55;;;;;;;2.47;1.17;;;20.90;70.10;;;;;;5008659;28;20250;-71
2024/02/27 13:29:30;;;;;;;2.53;1.00;;;20.90;70.20;;;;;;5010453;28;20211;-70